createdAt,value
2022-08-05T00:00:16.120Z,24.55
2022-08-05T00:01:20.250Z,24.57
2022-08-05T00:02:13.962Z,24.57
2022-08-05T00:03:15.555Z,24.53
2022-08-05T00:04:13.778Z,24.48
2022-08-05T00:06:02.631Z,24.51
2022-08-05T00:06:29.183Z,24.57
2022-08-05T00:07:59.080Z,24.47
2022-08-05T00:08:33.025Z,24.51
2022-08-05T00:09:15.819Z,24.39
2022-08-05T00:10:14.351Z,24.53
2022-08-05T00:11:20.627Z,24.51
2022-08-05T00:12:13.280Z,24.47
2022-08-05T00:13:18.546Z,24.45
2022-08-05T00:14:17.118Z,24.40
2022-08-05T00:15:54.243Z,24.39
2022-08-05T00:16:13.025Z,24.38
2022-08-05T00:17:28.530Z,24.36
2022-08-05T00:18:21.274Z,24.47
2022-08-05T00:19:12.698Z,24.43
2022-08-05T00:20:12.622Z,24.45
2022-08-05T00:21:12.548Z,24.47
2022-08-05T00:22:12.482Z,24.47
2022-08-05T00:23:12.933Z,24.40
2022-08-05T00:24:16.064Z,24.38
2022-08-05T00:25:12.760Z,24.39
2022-08-05T00:26:12.197Z,24.33
2022-08-05T00:27:16.589Z,24.21
2022-08-05T00:28:12.654Z,24.14
2022-08-05T00:29:11.979Z,23.99
2022-08-05T00:30:11.907Z,24.01
2022-08-05T00:31:11.831Z,23.87
2022-08-05T00:32:15.087Z,23.83
2022-08-05T00:34:41.964Z,23.77
2022-08-05T00:34:55.422Z,23.74
2022-08-05T00:35:11.542Z,23.68
2022-08-05T00:36:15.988Z,23.59
2022-08-05T00:37:14.235Z,23.61
2022-08-05T00:38:11.330Z,23.55
2022-08-05T00:39:13.654Z,23.50
2022-08-05T00:40:11.180Z,23.47
2022-08-05T00:41:11.778Z,23.48
2022-08-05T00:42:11.038Z,23.48
2022-08-05T00:43:10.970Z,23.44
2022-08-05T00:44:10.900Z,23.50
2022-08-05T00:45:11.754Z,23.48
2022-08-05T00:46:10.756Z,23.44
2022-08-05T00:47:10.680Z,23.50
2022-08-05T00:48:10.607Z,23.51
2022-08-05T00:49:10.555Z,23.47
2022-08-05T00:50:10.465Z,23.40
2022-08-05T00:51:50.672Z,23.51
2022-08-05T00:52:10.315Z,23.37
2022-08-05T00:54:00.396Z,23.31
2022-08-05T00:54:10.171Z,23.27
2022-08-05T00:55:10.114Z,23.23
2022-08-05T00:56:10.028Z,23.23
2022-08-05T00:57:09.954Z,23.13
2022-08-05T00:58:11.187Z,23.10
2022-08-05T00:59:09.808Z,23.03
2022-08-05T01:00:11.031Z,23.13
2022-08-05T01:01:09.834Z,23.20
2022-08-05T01:02:09.591Z,23.17
2022-08-05T01:03:09.516Z,23.08
2022-08-05T01:04:14.189Z,23.13
2022-08-05T01:05:09.998Z,23.10
2022-08-05T01:06:14.120Z,23.00
2022-08-05T01:07:13.787Z,23.12
2022-08-05T01:08:40.760Z,23.13
2022-08-05T01:09:09.090Z,23.05
2022-08-05T01:10:09.234Z,23.06
2022-08-05T01:11:08.947Z,23.13
2022-08-05T01:12:17.922Z,23.18
2022-08-05T01:13:13.249Z,23.18
2022-08-05T01:14:09.210Z,23.23
2022-08-05T01:15:34.989Z,23.18
2022-08-05T01:16:08.573Z,23.15
2022-08-05T01:17:08.513Z,23.23
2022-08-05T01:18:08.476Z,23.28
2022-08-05T01:19:08.365Z,23.34
2022-08-05T01:20:08.286Z,23.39
2022-08-05T01:21:08.217Z,23.36
2022-08-05T01:22:08.143Z,23.37
2022-08-05T01:23:15.057Z,23.39
2022-08-05T01:24:13.381Z,23.34
2022-08-05T01:25:07.933Z,23.17
2022-08-05T01:26:07.850Z,23.17
2022-08-05T01:27:19.142Z,23.15
2022-08-05T01:28:08.807Z,23.18
2022-08-05T01:29:07.630Z,23.24
2022-08-05T01:30:12.425Z,23.20
2022-08-05T01:31:07.489Z,23.12
2022-08-05T01:32:07.415Z,23.18
2022-08-05T01:33:08.143Z,23.18
2022-08-05T01:34:07.272Z,23.17
2022-08-05T01:35:10.473Z,23.15
2022-08-05T01:36:07.127Z,23.17
2022-08-05T01:37:07.052Z,23.12
2022-08-05T01:38:06.982Z,23.08
2022-08-05T01:39:06.935Z,23.08
2022-08-05T01:40:06.902Z,23.13
2022-08-05T01:41:06.785Z,23.15
2022-08-05T01:42:06.691Z,23.08
2022-08-05T01:43:06.617Z,23.18
2022-08-05T01:44:06.548Z,23.21
2022-08-05T01:45:08.233Z,23.15
2022-08-05T01:46:07.130Z,23.12
2022-08-05T01:47:06.768Z,23.10
2022-08-05T01:48:10.246Z,23.09
2022-08-05T01:49:12.130Z,23.12
2022-08-05T01:50:06.117Z,23.08
2022-08-05T01:51:12.526Z,23.02
2022-08-05T01:52:12.367Z,22.98
2022-08-05T01:53:05.892Z,22.91
2022-08-05T01:54:05.822Z,22.91
2022-08-05T01:55:05.743Z,22.85
2022-08-05T01:56:05.668Z,22.85
2022-08-05T01:58:11.777Z,22.83
2022-08-05T01:58:12.248Z,22.85
2022-08-05T01:59:05.464Z,22.76
2022-08-05T02:00:05.388Z,22.81
2022-08-05T02:01:05.314Z,22.80
2022-08-05T02:02:05.367Z,22.84
2022-08-05T02:03:05.162Z,22.78
2022-08-05T02:04:05.098Z,22.78
2022-08-05T02:05:05.023Z,22.80
2022-08-05T02:06:24.075Z,22.81
2022-08-05T02:07:06.235Z,22.78
2022-08-05T02:08:04.798Z,22.88
2022-08-05T02:09:04.735Z,22.93
2022-08-05T02:10:04.657Z,22.76
2022-08-05T02:11:04.585Z,22.91
2022-08-05T02:12:04.506Z,22.84
2022-08-05T02:13:04.814Z,22.88
2022-08-05T02:14:04.366Z,22.76
2022-08-05T02:15:04.300Z,22.78
2022-08-05T02:16:04.218Z,22.81
2022-08-05T02:17:04.150Z,22.83
2022-08-05T02:18:31.767Z,22.78
2022-08-05T02:19:07.217Z,22.80
2022-08-05T02:20:03.925Z,22.76
2022-08-05T02:21:03.850Z,22.78
2022-08-05T02:22:03.776Z,22.80
2022-08-05T02:23:03.708Z,22.81
2022-08-05T02:24:03.633Z,22.70
2022-08-05T02:25:12.669Z,22.76
2022-08-05T02:27:09.990Z,22.80
2022-08-05T02:28:08.679Z,22.83
2022-08-05T02:30:12.219Z,22.73
2022-08-05T02:31:14.336Z,22.68
2022-08-05T02:33:15.989Z,22.81
2022-08-05T02:34:15.878Z,22.73
2022-08-05T02:35:19.111Z,22.75
2022-08-05T02:36:15.839Z,22.76
2022-08-05T02:37:15.781Z,22.73
2022-08-05T02:38:19.168Z,22.72
2022-08-05T02:39:15.547Z,22.69
2022-08-05T02:40:15.442Z,22.69
2022-08-05T02:41:17.884Z,22.65
2022-08-05T02:42:26.095Z,22.62
2022-08-05T02:43:15.354Z,22.63
2022-08-05T02:44:15.149Z,22.60
2022-08-05T02:45:15.078Z,22.57
2022-08-05T02:46:16.456Z,22.57
2022-08-05T02:47:14.934Z,22.65
2022-08-05T02:48:14.865Z,22.63
2022-08-05T02:49:14.807Z,22.63
2022-08-05T02:50:14.709Z,22.65
2022-08-05T02:51:14.640Z,22.53
2022-08-05T02:52:29.861Z,22.54
2022-08-05T02:53:18.848Z,22.48
2022-08-05T02:54:35.702Z,22.36
2022-08-05T02:55:14.348Z,22.48
2022-08-05T02:56:16.029Z,22.45
2022-08-05T02:58:10.280Z,22.51
2022-08-05T02:58:14.194Z,22.39
2022-08-05T02:59:14.059Z,22.41
2022-08-05T03:00:13.983Z,22.43
2022-08-05T03:01:13.935Z,22.44
2022-08-05T03:02:13.839Z,22.43
2022-08-05T03:03:13.765Z,22.30
2022-08-05T03:04:14.317Z,22.38
2022-08-05T03:05:13.619Z,22.32
2022-08-05T03:06:53.878Z,22.32
2022-08-05T03:07:17.603Z,22.25
2022-08-05T03:08:13.685Z,22.15
2022-08-05T03:09:15.746Z,22.15
2022-08-05T03:10:13.462Z,22.20
2022-08-05T03:11:54.739Z,22.14
2022-08-05T03:12:13.104Z,22.00
2022-08-05T03:13:13.032Z,21.98
2022-08-05T03:14:13.616Z,21.96
2022-08-05T03:15:12.884Z,22.06
2022-08-05T03:16:12.813Z,22.04
2022-08-05T03:17:12.735Z,22.07
2022-08-05T03:18:12.675Z,22.11
2022-08-05T03:19:20.242Z,22.11
2022-08-05T03:20:13.408Z,22.10
2022-08-05T03:21:12.442Z,22.08
2022-08-05T03:22:16.449Z,22.08
2022-08-05T03:23:12.293Z,22.17
2022-08-05T03:24:13.381Z,22.14
2022-08-05T03:25:32.377Z,22.07
2022-08-05T03:26:30.887Z,22.23
2022-08-05T03:27:12.014Z,22.15
2022-08-05T03:28:11.929Z,22.22
2022-08-05T03:29:12.361Z,22.15
2022-08-05T03:30:11.780Z,22.20
2022-08-05T03:31:11.712Z,22.18
2022-08-05T03:32:11.643Z,22.20
2022-08-05T03:33:11.562Z,22.06
2022-08-05T03:34:11.492Z,22.11
2022-08-05T03:35:11.416Z,22.10
2022-08-05T03:36:12.113Z,22.06
2022-08-05T03:37:11.269Z,22.11
2022-08-05T03:38:11.202Z,22.11
2022-08-05T03:39:13.070Z,22.04
2022-08-05T03:40:12.001Z,22.15
2022-08-05T03:41:11.101Z,22.10
2022-08-05T03:42:10.905Z,22.02
2022-08-05T03:43:59.257Z,22.07
2022-08-05T03:44:11.791Z,22.06
2022-08-05T03:45:21.935Z,21.95
2022-08-05T03:46:10.612Z,22.00
2022-08-05T03:47:10.535Z,21.98
2022-08-05T03:48:10.464Z,21.96
2022-08-05T03:49:10.481Z,21.91
2022-08-05T03:50:10.319Z,21.98
2022-08-05T03:52:48.707Z,21.88
2022-08-05T03:52:50.354Z,21.85
2022-08-05T03:55:06.826Z,21.82
2022-08-05T03:55:52.226Z,21.88
2022-08-05T03:56:01.952Z,21.91
2022-08-05T03:56:17.309Z,21.75
2022-08-05T03:57:16.557Z,21.77
2022-08-05T03:58:09.728Z,21.70
2022-08-05T03:59:09.656Z,21.75
2022-08-05T04:00:09.587Z,21.72
2022-08-05T04:01:11.236Z,21.70
2022-08-05T04:02:14.692Z,21.69
2022-08-05T04:03:09.363Z,21.69
2022-08-05T04:04:10.903Z,21.60
2022-08-05T04:05:09.807Z,21.61
2022-08-05T04:06:09.143Z,21.57
2022-08-05T04:07:09.073Z,21.66
2022-08-05T04:08:29.998Z,21.62
2022-08-05T04:09:08.916Z,21.69
2022-08-05T04:10:08.850Z,21.72
2022-08-05T04:11:09.884Z,21.73
2022-08-05T04:12:23.634Z,21.72
2022-08-05T04:13:08.629Z,21.85
2022-08-05T04:14:08.555Z,21.79
2022-08-05T04:15:08.479Z,21.76
2022-08-05T04:16:08.402Z,21.80
2022-08-05T04:17:08.334Z,21.88
2022-08-05T04:18:09.741Z,21.85
2022-08-05T04:19:10.629Z,21.80
2022-08-05T04:20:08.106Z,21.83
2022-08-05T04:21:08.036Z,21.79
2022-08-05T04:22:11.937Z,21.72
2022-08-05T04:23:07.885Z,21.79
2022-08-05T04:24:09.066Z,21.75
2022-08-05T04:25:07.745Z,21.80
2022-08-05T04:26:07.668Z,21.82
2022-08-05T04:27:07.614Z,21.80
2022-08-05T04:28:11.377Z,21.83
2022-08-05T04:29:07.602Z,21.82
2022-08-05T04:30:07.377Z,21.85
2022-08-05T04:31:10.474Z,21.83
2022-08-05T04:32:07.231Z,21.89
2022-08-05T04:33:07.149Z,21.92
2022-08-05T04:34:18.279Z,21.93
2022-08-05T04:35:07.006Z,22.00
2022-08-05T04:36:16.625Z,22.06
2022-08-05T04:37:06.857Z,22.02
2022-08-05T04:38:07.052Z,22.06
2022-08-05T04:39:06.710Z,22.04
2022-08-05T04:40:06.641Z,22.06
2022-08-05T04:41:06.564Z,22.17
2022-08-05T04:42:06.532Z,22.20
2022-08-05T04:43:06.420Z,22.20
2022-08-05T04:44:09.443Z,22.20
2022-08-05T04:45:06.274Z,22.26
2022-08-05T04:46:06.192Z,22.26
2022-08-05T04:47:09.467Z,22.32
2022-08-05T04:48:06.052Z,22.35
2022-08-05T04:49:05.978Z,22.35
2022-08-05T04:50:10.963Z,22.36
2022-08-05T04:51:11.179Z,22.43
2022-08-05T04:52:05.758Z,22.39
2022-08-05T04:53:05.686Z,22.48
2022-08-05T04:54:05.608Z,22.47
2022-08-05T04:55:14.894Z,22.48
2022-08-05T04:56:33.246Z,22.59
2022-08-05T04:57:05.385Z,22.47
2022-08-05T04:58:05.316Z,22.50
2022-08-05T04:59:21.789Z,22.69
2022-08-05T05:00:05.167Z,22.60
2022-08-05T05:01:05.116Z,22.62
2022-08-05T05:02:07.351Z,22.70
2022-08-05T05:03:05.021Z,22.66
2022-08-05T05:04:04.893Z,22.70
2022-08-05T05:05:17.030Z,22.75
2022-08-05T05:06:38.765Z,22.83
2022-08-05T05:07:04.659Z,22.78
2022-08-05T05:08:04.582Z,22.81
2022-08-05T05:09:05.526Z,22.87
2022-08-05T05:10:04.546Z,22.91
2022-08-05T05:11:04.360Z,22.87
2022-08-05T05:12:04.292Z,22.99
2022-08-05T05:13:04.649Z,22.99
2022-08-05T05:14:04.140Z,22.99
2022-08-05T05:15:04.126Z,23.05
2022-08-05T05:16:06.139Z,23.10
2022-08-05T05:17:03.921Z,23.05
2022-08-05T05:18:03.848Z,23.10
2022-08-05T05:19:18.563Z,23.12
2022-08-05T05:20:03.706Z,23.24
2022-08-05T05:21:04.185Z,23.18
2022-08-05T05:22:23.135Z,23.20
2022-08-05T05:23:08.129Z,23.31
2022-08-05T05:24:08.875Z,23.27
2022-08-05T05:25:16.782Z,23.31
2022-08-05T05:26:03.269Z,23.39
2022-08-05T05:27:03.186Z,23.50
2022-08-05T05:28:03.117Z,23.47
2022-08-05T05:29:10.090Z,23.51
2022-08-05T05:30:04.111Z,23.50
2022-08-05T05:31:02.898Z,23.63
2022-08-05T05:32:02.824Z,23.65
2022-08-05T05:33:09.069Z,23.71
2022-08-05T05:34:02.912Z,23.84
2022-08-05T05:35:02.611Z,23.81
2022-08-05T05:36:02.536Z,23.81
2022-08-05T05:37:02.461Z,23.88
2022-08-05T05:38:02.522Z,23.88
2022-08-05T05:39:03.758Z,23.93
2022-08-05T05:40:02.238Z,24.02
2022-08-05T05:41:02.171Z,23.99
2022-08-05T05:42:02.096Z,24.05
2022-08-05T05:43:02.315Z,24.11
2022-08-05T05:44:01.957Z,24.14
2022-08-05T05:45:03.045Z,24.20
2022-08-05T05:46:01.803Z,24.16
2022-08-05T05:47:04.018Z,24.23
2022-08-05T05:48:06.035Z,24.26
2022-08-05T05:49:06.574Z,24.28
2022-08-05T05:50:04.230Z,24.36
2022-08-05T05:51:14.828Z,24.33
2022-08-05T05:52:01.368Z,24.42
2022-08-05T05:53:01.306Z,24.35
2022-08-05T05:54:01.224Z,24.35
2022-08-05T05:55:01.154Z,24.39
2022-08-05T05:56:03.262Z,24.40
2022-08-05T05:57:01.009Z,24.51
2022-08-05T05:58:01.989Z,24.50
2022-08-05T05:59:03.113Z,24.58
2022-08-05T06:00:00.797Z,24.65
2022-08-05T06:01:02.466Z,24.69
2022-08-05T06:02:00.646Z,24.70
2022-08-05T06:03:00.572Z,24.69
2022-08-05T06:04:03.692Z,24.66
2022-08-05T06:05:00.475Z,24.70
2022-08-05T06:06:00.355Z,24.60
2022-08-05T06:07:01.637Z,24.61
2022-08-05T06:08:02.166Z,24.70
2022-08-05T06:09:00.143Z,24.61
2022-08-05T06:10:04.726Z,24.69
2022-08-05T06:10:59.993Z,24.65
2022-08-05T06:12:02.656Z,24.70
2022-08-05T06:12:59.849Z,24.73
2022-08-05T06:14:00.295Z,24.68
2022-08-05T06:14:59.701Z,24.76
2022-08-05T06:16:30.015Z,24.73
2022-08-05T06:16:59.565Z,24.84
2022-08-05T06:17:59.483Z,24.77
2022-08-05T06:19:00.074Z,24.74
2022-08-05T06:19:59.884Z,24.85
2022-08-05T06:20:59.280Z,24.85
2022-08-05T06:21:59.192Z,24.89
2022-08-05T06:22:59.125Z,24.92
2022-08-05T06:23:59.050Z,24.95
2022-08-05T06:24:58.984Z,25.07
2022-08-05T06:26:13.008Z,25.03
2022-08-05T06:26:58.830Z,24.95
2022-08-05T06:28:10.719Z,25.04
2022-08-05T06:28:58.690Z,25.07
2022-08-05T06:30:04.642Z,24.93
2022-08-05T06:30:58.548Z,25.07
2022-08-05T06:31:58.473Z,25.08
2022-08-05T06:32:58.402Z,25.10
2022-08-05T06:34:06.889Z,25.21
2022-08-05T06:34:58.365Z,25.18
2022-08-05T06:36:07.984Z,25.26
2022-08-05T06:36:58.843Z,25.38
2022-08-05T06:38:00.150Z,25.33
2022-08-05T06:38:58.005Z,25.46
2022-08-05T06:39:57.895Z,25.51
2022-08-05T06:40:57.826Z,25.47
2022-08-05T06:41:58.924Z,25.66
2022-08-05T06:42:57.682Z,25.63
2022-08-05T06:44:00.584Z,25.77
2022-08-05T06:44:57.537Z,25.80
2022-08-05T06:46:04.037Z,25.81
2022-08-05T06:46:57.399Z,25.93
2022-08-05T06:48:44.195Z,25.99
2022-08-05T06:48:58.959Z,25.96
2022-08-05T06:50:01.695Z,25.98
2022-08-05T06:50:57.140Z,26.09
2022-08-05T06:51:57.030Z,26.19
2022-08-05T06:52:58.847Z,26.33
2022-08-05T06:53:56.892Z,26.31
2022-08-05T06:54:56.821Z,26.43
2022-08-05T06:55:56.749Z,26.45
2022-08-05T06:58:02.677Z,26.51
2022-08-05T06:58:11.660Z,26.60
2022-08-05T06:58:56.537Z,26.65
2022-08-05T06:59:58.243Z,26.77
2022-08-05T07:00:56.452Z,26.84
2022-08-05T07:01:56.322Z,26.84
2022-08-05T07:02:56.247Z,26.93
2022-08-05T07:03:56.177Z,26.89
2022-08-05T07:04:56.101Z,26.97
2022-08-05T07:05:56.028Z,27.00
2022-08-05T07:06:55.959Z,27.10
2022-08-05T07:07:55.901Z,27.12
2022-08-05T07:08:55.818Z,27.14
2022-08-05T07:09:58.325Z,27.25
2022-08-05T07:10:55.671Z,27.25
2022-08-05T07:11:55.609Z,27.30
2022-08-05T07:12:55.535Z,27.33
2022-08-05T07:13:57.514Z,27.30
2022-08-05T07:14:55.389Z,27.33
2022-08-05T07:16:00.749Z,27.35
2022-08-05T07:18:07.212Z,27.37
2022-08-05T07:18:08.591Z,27.35
2022-08-05T07:18:55.105Z,27.37
2022-08-05T07:20:31.471Z,27.30
2022-08-05T07:20:54.965Z,27.33
2022-08-05T07:22:00.204Z,27.33
2022-08-05T07:22:54.826Z,27.36
2022-08-05T07:23:54.751Z,27.39
2022-08-05T07:24:54.687Z,27.39
2022-08-05T07:25:56.855Z,27.40
2022-08-05T07:26:54.536Z,27.47
2022-08-05T07:27:57.336Z,27.47
2022-08-05T07:28:54.400Z,27.48
2022-08-05T07:30:30.065Z,27.39
2022-08-05T07:30:55.105Z,27.44
2022-08-05T07:31:55.333Z,27.37
2022-08-05T07:32:54.114Z,27.40
2022-08-05T07:33:54.047Z,27.39
2022-08-05T07:34:57.930Z,27.33
2022-08-05T07:36:04.526Z,27.37
2022-08-05T07:36:53.828Z,27.37
2022-08-05T07:37:53.760Z,27.33
2022-08-05T07:38:54.827Z,27.33
2022-08-05T07:40:27.027Z,27.29
2022-08-05T07:40:55.673Z,27.26
2022-08-05T07:42:12.977Z,27.27
2022-08-05T07:42:53.404Z,27.40
2022-08-05T07:43:53.332Z,27.33
2022-08-05T07:44:53.264Z,27.33
2022-08-05T07:45:57.305Z,27.37
2022-08-05T07:46:53.120Z,27.37
2022-08-05T07:47:55.784Z,27.39
2022-08-05T07:49:02.385Z,27.44
2022-08-05T07:49:54.572Z,27.40
2022-08-05T07:50:52.836Z,27.40
2022-08-05T07:51:53.490Z,27.37
2022-08-05T07:52:52.697Z,27.48
2022-08-05T07:53:52.622Z,27.51
2022-08-05T07:54:52.550Z,27.59
2022-08-05T07:56:06.403Z,27.63
2022-08-05T07:57:01.810Z,27.60
2022-08-05T07:58:02.368Z,27.67
2022-08-05T07:58:57.179Z,27.71
2022-08-05T07:59:52.235Z,27.70
2022-08-05T08:00:52.144Z,27.67
2022-08-05T08:01:57.616Z,27.70
2022-08-05T08:03:14.638Z,27.64
2022-08-05T08:03:51.917Z,27.68
2022-08-05T08:04:51.841Z,27.64
2022-08-05T08:05:51.771Z,27.65
2022-08-05T08:06:51.707Z,27.65
2022-08-05T08:07:59.554Z,27.73
2022-08-05T08:08:51.558Z,27.60
2022-08-05T08:09:52.376Z,27.73
2022-08-05T08:10:51.428Z,27.74
2022-08-05T08:11:59.033Z,27.83
2022-08-05T08:12:51.276Z,27.83
2022-08-05T08:14:00.620Z,27.95
2022-08-05T08:14:51.132Z,27.89
2022-08-05T08:16:35.081Z,27.93
2022-08-05T08:16:53.430Z,27.87
2022-08-05T08:17:52.974Z,28.05
2022-08-05T08:18:50.850Z,28.01
2022-08-05T08:20:22.335Z,28.04
2022-08-05T08:21:02.410Z,28.00
2022-08-05T08:21:50.647Z,27.98
2022-08-05T08:22:50.568Z,28.04
2022-08-05T08:24:02.841Z,28.05
2022-08-05T08:24:51.868Z,28.11
2022-08-05T08:25:59.356Z,28.01
2022-08-05T08:26:50.287Z,28.04
2022-08-05T08:27:51.464Z,28.14
2022-08-05T08:28:59.219Z,28.10
2022-08-05T08:30:06.688Z,28.19
2022-08-05T08:30:50.270Z,28.33
2022-08-05T08:31:49.938Z,28.32
2022-08-05T08:32:49.862Z,28.44
2022-08-05T08:33:51.759Z,28.49
2022-08-05T08:34:49.733Z,28.59
2022-08-05T08:35:53.094Z,28.74
2022-08-05T08:36:52.448Z,28.79
2022-08-05T08:37:53.518Z,28.86
2022-08-05T08:38:53.289Z,28.96
2022-08-05T08:39:49.874Z,28.98
2022-08-05T08:40:51.702Z,29.12
2022-08-05T08:41:52.696Z,29.13
2022-08-05T08:42:52.358Z,29.19
2022-08-05T08:45:18.773Z,29.23
2022-08-05T08:45:19.919Z,29.35
2022-08-05T08:45:48.949Z,29.44
2022-08-05T08:46:48.875Z,29.47
2022-08-05T08:48:11.778Z,29.47
2022-08-05T08:49:06.402Z,29.53
2022-08-05T08:50:12.807Z,29.60
2022-08-05T08:51:03.225Z,29.72
2022-08-05T08:52:06.189Z,29.68
2022-08-05T08:52:51.729Z,29.71
2022-08-05T08:53:48.386Z,29.66
2022-08-05T08:54:48.309Z,29.78
2022-08-05T08:56:03.541Z,29.78
2022-08-05T08:56:49.596Z,29.78
2022-08-05T08:57:58.093Z,29.78
2022-08-05T08:58:48.746Z,29.86
2022-08-05T08:59:48.990Z,29.90
2022-08-05T09:00:47.955Z,29.87
2022-08-05T09:01:57.499Z,29.88
2022-08-05T09:02:47.749Z,29.88
2022-08-05T09:03:47.676Z,29.97
2022-08-05T09:05:15.929Z,29.94
2022-08-05T09:06:09.259Z,30.06
2022-08-05T09:06:47.474Z,30.02
2022-08-05T09:07:56.978Z,29.98
2022-08-05T09:08:47.331Z,30.03
2022-08-05T09:09:47.258Z,30.02
2022-08-05T09:10:47.185Z,30.00
2022-08-05T09:11:50.806Z,30.00
2022-08-05T09:12:50.889Z,30.05
2022-08-05T09:14:09.149Z,30.06
2022-08-05T09:14:57.621Z,30.12
2022-08-05T09:15:46.835Z,30.12
2022-08-05T09:16:48.720Z,30.18
2022-08-05T09:17:49.866Z,30.23
2022-08-05T09:18:46.633Z,30.30
2022-08-05T09:20:01.507Z,30.28
2022-08-05T09:20:46.483Z,30.28
2022-08-05T09:22:23.110Z,30.31
2022-08-05T09:22:51.848Z,30.24
2022-08-05T09:23:46.278Z,30.34
2022-08-05T09:24:46.204Z,30.35
2022-08-05T09:26:03.367Z,30.37
2022-08-05T09:26:46.069Z,30.54
2022-08-05T09:28:04.307Z,30.48
2022-08-05T09:28:45.927Z,30.46
2022-08-05T09:29:47.578Z,30.55
2022-08-05T09:30:45.785Z,30.50
2022-08-05T09:32:42.126Z,30.50
2022-08-05T09:32:45.957Z,30.54
2022-08-05T09:33:45.574Z,30.59
2022-08-05T09:34:45.507Z,30.59
2022-08-05T09:35:45.438Z,30.69
2022-08-05T09:36:54.699Z,30.62
2022-08-05T09:38:12.200Z,30.69
2022-08-05T09:38:45.231Z,30.70
2022-08-05T09:39:52.394Z,30.66
2022-08-05T09:40:53.577Z,30.80
2022-08-05T09:41:45.014Z,30.73
2022-08-05T09:42:44.949Z,30.66
2022-08-05T09:43:44.881Z,30.59
2022-08-05T09:44:44.809Z,30.59
2022-08-05T09:46:07.571Z,30.59
2022-08-05T09:46:53.640Z,30.55
2022-08-05T09:47:54.938Z,30.62
2022-08-05T09:49:06.606Z,30.61
2022-08-05T09:50:00.513Z,30.66
2022-08-05T09:50:45.447Z,30.61
2022-08-05T09:51:44.321Z,30.59
2022-08-05T09:52:45.137Z,30.73
2022-08-05T09:53:53.885Z,30.68
2022-08-05T09:54:44.114Z,30.69
2022-08-05T09:55:58.217Z,30.73
2022-08-05T09:56:51.508Z,30.73
2022-08-05T09:57:43.901Z,30.65
2022-08-05T09:58:43.833Z,30.72
2022-08-05T09:59:43.768Z,30.73
2022-08-05T10:00:43.701Z,30.80
2022-08-05T10:01:45.805Z,30.85
2022-08-05T10:02:43.597Z,30.83
2022-08-05T10:03:59.606Z,30.90
2022-08-05T10:04:43.418Z,30.90
2022-08-05T10:05:43.345Z,30.99
2022-08-05T10:06:54.918Z,31.00
2022-08-05T10:08:10.744Z,30.99
2022-08-05T10:08:43.142Z,31.07
2022-08-05T10:09:44.961Z,30.90
2022-08-05T10:10:43.000Z,30.90
2022-08-05T10:11:42.933Z,30.91
2022-08-05T10:12:49.216Z,30.91
2022-08-05T10:13:47.813Z,31.00
2022-08-05T10:14:42.723Z,31.02
2022-08-05T10:15:42.654Z,30.99
2022-08-05T10:16:53.222Z,30.94
2022-08-05T10:17:47.161Z,31.02
2022-08-05T10:18:42.446Z,31.03
2022-08-05T10:20:03.081Z,31.00
2022-08-05T10:20:42.309Z,31.09
2022-08-05T10:21:42.238Z,30.92
2022-08-05T10:22:43.091Z,30.94
2022-08-05T10:23:59.220Z,30.94
2022-08-05T10:24:42.028Z,31.03
2022-08-05T10:25:41.961Z,31.06
2022-08-05T10:26:51.953Z,31.14
2022-08-05T10:28:13.490Z,31.12
2022-08-05T10:28:41.782Z,31.21
2022-08-05T10:30:06.986Z,31.21
2022-08-05T10:32:51.661Z,31.22
2022-08-05T10:32:51.791Z,31.27
2022-08-05T10:33:01.293Z,31.14
2022-08-05T10:33:41.400Z,31.28
2022-08-05T10:34:41.341Z,31.18
2022-08-05T10:35:44.341Z,31.29
2022-08-05T10:36:41.196Z,31.36
2022-08-05T10:37:44.934Z,31.44
2022-08-05T10:38:44.905Z,31.46
2022-08-05T10:40:03.911Z,31.59
2022-08-05T10:40:43.626Z,31.51
2022-08-05T10:41:45.165Z,31.62
2022-08-05T10:42:43.780Z,31.64
2022-08-05T10:43:40.712Z,31.65
2022-08-05T10:44:40.641Z,31.65
2022-08-05T10:45:42.198Z,31.74
2022-08-05T10:46:40.508Z,31.71
2022-08-05T10:47:40.431Z,31.76
2022-08-05T10:48:56.719Z,31.70
2022-08-05T10:49:48.895Z,31.65
2022-08-05T10:50:40.227Z,31.65
2022-08-05T10:51:40.265Z,31.59
2022-08-05T10:52:40.089Z,31.61
2022-08-05T10:53:42.544Z,31.64
2022-08-05T10:54:47.192Z,31.69
2022-08-05T10:56:04.915Z,31.74
2022-08-05T10:56:39.810Z,31.64
2022-08-05T10:57:39.744Z,31.62
2022-08-05T10:58:48.556Z,31.70
2022-08-05T11:00:03.223Z,31.66
2022-08-05T11:00:42.163Z,31.70
2022-08-05T11:02:03.808Z,31.73
2022-08-05T11:02:43.642Z,31.85
2022-08-05T11:03:39.368Z,31.85
2022-08-05T11:04:39.261Z,31.92
2022-08-05T11:05:39.194Z,31.92
2022-08-05T11:06:39.129Z,31.97
2022-08-05T11:08:03.014Z,32.04
2022-08-05T11:08:39.386Z,32.07
2022-08-05T11:09:45.418Z,32.14
2022-08-05T11:10:50.467Z,32.16
2022-08-05T11:11:44.288Z,32.22
2022-08-05T11:12:41.283Z,32.29
2022-08-05T11:13:38.644Z,32.29
2022-08-05T11:16:00.642Z,32.40
2022-08-05T11:16:56.194Z,32.52
2022-08-05T11:17:59.555Z,32.52
2022-08-05T11:18:38.296Z,32.70
2022-08-05T11:20:10.967Z,32.80
2022-08-05T11:20:39.092Z,32.92
2022-08-05T11:21:49.007Z,33.02
2022-08-05T11:22:38.024Z,33.04
2022-08-05T11:24:03.876Z,33.09
2022-08-05T11:24:38.799Z,33.09
2022-08-05T11:26:04.344Z,33.09
2022-08-05T11:26:37.749Z,33.08
2022-08-05T11:27:51.206Z,33.11
2022-08-05T11:28:37.615Z,33.09
2022-08-05T11:29:37.547Z,33.14
2022-08-05T11:30:37.474Z,33.19
2022-08-05T11:31:57.801Z,33.27
2022-08-05T11:32:37.342Z,33.20
2022-08-05T11:33:46.072Z,33.23
2022-08-05T11:34:37.246Z,33.24
2022-08-05T11:35:37.135Z,33.32
2022-08-05T11:36:42.684Z,33.31
2022-08-05T11:38:26.475Z,33.28
2022-08-05T11:38:45.446Z,33.23
2022-08-05T11:39:36.900Z,33.32
2022-08-05T11:40:36.797Z,33.24
2022-08-05T11:42:01.091Z,33.28
2022-08-05T11:42:40.373Z,33.39
2022-08-05T11:44:04.842Z,33.46
2022-08-05T11:44:40.365Z,33.42
2022-08-05T11:46:15.004Z,33.42
2022-08-05T11:46:36.404Z,33.46
2022-08-05T11:47:49.819Z,33.40
2022-08-05T11:48:36.250Z,33.42
2022-08-05T11:49:36.184Z,33.42
2022-08-05T11:50:36.116Z,33.42
2022-08-05T11:51:44.438Z,33.45
2022-08-05T11:52:35.986Z,33.50
2022-08-05T11:53:41.950Z,33.64
2022-08-05T11:54:35.842Z,33.67
2022-08-05T11:55:36.477Z,33.76
2022-08-05T11:56:40.935Z,33.81
2022-08-05T11:58:08.351Z,33.89
2022-08-05T11:58:35.576Z,33.90
2022-08-05T11:59:49.545Z,34.10
2022-08-05T12:00:38.133Z,34.10
2022-08-05T12:01:35.380Z,34.11
2022-08-05T12:02:36.149Z,34.16
2022-08-05T12:03:35.273Z,34.32
2022-08-05T12:04:35.168Z,34.29
2022-08-05T12:05:39.827Z,34.39
2022-08-05T12:06:35.032Z,34.39
2022-08-05T12:08:03.491Z,34.42
2022-08-05T12:08:34.899Z,34.54
2022-08-05T12:09:38.696Z,34.58
2022-08-05T12:10:38.424Z,34.58
2022-08-05T12:11:40.335Z,34.62
2022-08-05T12:12:34.626Z,34.61
2022-08-05T12:13:48.852Z,34.70
2022-08-05T12:14:34.494Z,34.74
2022-08-05T12:15:38.431Z,34.75
2022-08-05T12:16:34.359Z,34.74
2022-08-05T12:18:03.563Z,34.85
2022-08-05T12:18:34.229Z,34.90
2022-08-05T12:20:26.512Z,34.83
2022-08-05T12:20:34.102Z,34.99
2022-08-05T12:21:34.024Z,35.00
2022-08-05T12:22:33.950Z,35.10
2022-08-05T12:23:33.885Z,35.00
2022-08-05T12:24:33.820Z,35.02
2022-08-05T12:25:33.751Z,35.07
2022-08-05T12:26:33.687Z,35.00
2022-08-05T12:27:33.643Z,35.15
2022-08-05T12:28:33.548Z,35.17
2022-08-05T12:29:39.056Z,35.26
2022-08-05T12:30:33.418Z,35.30
2022-08-05T12:31:47.657Z,35.36
2022-08-05T12:32:33.281Z,35.49
2022-08-05T12:33:37.072Z,35.55
2022-08-05T12:34:33.161Z,35.56
2022-08-05T12:35:37.181Z,35.67
2022-08-05T12:36:33.065Z,35.58
2022-08-05T12:37:33.148Z,35.71
2022-08-05T12:38:32.875Z,35.82
2022-08-05T12:39:37.278Z,35.86
2022-08-05T12:40:32.746Z,36.00
2022-08-05T12:41:34.456Z,36.21
2022-08-05T12:42:32.615Z,36.35
2022-08-05T12:43:32.554Z,36.25
2022-08-05T12:44:34.162Z,36.33
2022-08-05T12:45:48.399Z,36.37
2022-08-05T12:46:32.343Z,36.40
2022-08-05T12:47:32.279Z,36.58
2022-08-05T12:48:33.097Z,36.59
2022-08-05T12:50:04.622Z,36.73
2022-08-05T12:50:32.076Z,36.89
2022-08-05T12:52:12.981Z,37.18
2022-08-05T12:52:39.702Z,37.51
2022-08-05T12:53:37.002Z,37.97
2022-08-05T12:54:31.820Z,38.64
2022-08-05T12:55:32.527Z,39.29